sensor_id;sensor_type;location;lat;lon;timestamp;P1;durP1;ratioP1;P2;durP2;ratioP2
13435;SDS011;6790;49.520;8.504;2022-12-05T00:03:55;29.50;;;11.60;;
13435;SDS011;6790;49.520;8.504;2022-12-05T00:06:24;33.57;;;13.50;;
13435;SDS011;6790;49.520;8.504;2022-12-05T00:08:52;22.17;;;10.27;;
13435;SDS011;6790;49.520;8.504;2022-12-05T00:11:22;26.30;;;10.20;;
13435;SDS011;6790;49.520;8.504;2022-12-05T00:13:51;21.93;;;10.63;;
13435;SDS011;6790;49.520;8.504;2022-12-05T00:16:19;29.40;;;11.67;;
13435;SDS011;6790;49.520;8.504;2022-12-05T00:18:48;25.23;;;10.53;;
13435;SDS011;6790;49.520;8.504;2022-12-05T00:21:19;20.17;;;8.83;;
13435;SDS011;6790;49.520;8.504;2022-12-05T00:23:54;26.90;;;10.37;;
13435;SDS011;6790;49.520;8.504;2022-12-05T00:26:21;21.20;;;11.10;;
13435;SDS011;6790;49.520;8.504;2022-12-05T00:28:47;16.63;;;9.10;;
13435;SDS011;6790;49.520;8.504;2022-12-05T00:31:14;16.70;;;9.00;;
13435;SDS011;6790;49.520;8.504;2022-12-05T00:33:44;22.97;;;9.73;;
13435;SDS011;6790;49.520;8.504;2022-12-05T00:36:12;28.37;;;12.87;;
13435;SDS011;6790;49.520;8.504;2022-12-05T00:38:46;20.77;;;9.23;;
13435;SDS011;6790;49.520;8.504;2022-12-05T00:41:23;17.00;;;9.70;;
13435;SDS011;6790;49.520;8.504;2022-12-05T00:43:51;19.17;;;8.83;;
13435;SDS011;6790;49.520;8.504;2022-12-05T00:46:18;25.77;;;8.63;;
13435;SDS011;6790;49.520;8.504;2022-12-05T00:48:51;22.37;;;9.20;;
13435;SDS011;6790;49.520;8.504;2022-12-05T00:51:19;19.83;;;9.87;;
13435;SDS011;6790;49.520;8.504;2022-12-05T00:53:51;24.30;;;10.67;;
13435;SDS011;6790;49.520;8.504;2022-12-05T00:56:21;25.07;;;11.57;;
13435;SDS011;6790;49.520;8.504;2022-12-05T00:58:49;19.63;;;9.90;;
13435;SDS011;6790;49.520;8.504;2022-12-05T01:01:19;17.63;;;9.40;;
13435;SDS011;6790;49.520;8.504;2022-12-05T01:03:45;30.87;;;10.30;;
13435;SDS011;6790;49.520;8.504;2022-12-05T01:06:12;23.40;;;10.53;;
13435;SDS011;6790;49.520;8.504;2022-12-05T01:08:40;24.77;;;9.57;;
13435;SDS011;6790;49.520;8.504;2022-12-05T01:11:07;22.17;;;9.67;;
13435;SDS011;6790;49.520;8.504;2022-12-05T01:13:34;21.73;;;10.17;;
13435;SDS011;6790;49.520;8.504;2022-12-05T01:16:00;18.87;;;9.20;;
13435;SDS011;6790;49.520;8.504;2022-12-05T01:18:26;28.03;;;12.00;;
13435;SDS011;6790;49.520;8.504;2022-12-05T01:20:53;25.93;;;10.47;;
13435;SDS011;6790;49.520;8.504;2022-12-05T01:23:19;22.07;;;9.10;;
13435;SDS011;6790;49.520;8.504;2022-12-05T01:25:47;18.57;;;9.70;;
13435;SDS011;6790;49.520;8.504;2022-12-05T01:28:15;18.03;;;9.83;;
13435;SDS011;6790;49.520;8.504;2022-12-05T01:30:42;21.17;;;9.53;;
13435;SDS011;6790;49.520;8.504;2022-12-05T01:33:11;22.03;;;10.40;;
13435;SDS011;6790;49.520;8.504;2022-12-05T01:35:37;32.50;;;10.53;;
13435;SDS011;6790;49.520;8.504;2022-12-05T01:38:04;31.43;;;12.27;;
13435;SDS011;6790;49.520;8.504;2022-12-05T01:40:31;36.23;;;11.73;;
13435;SDS011;6790;49.520;8.504;2022-12-05T01:43:00;27.03;;;10.47;;
13435;SDS011;6790;49.520;8.504;2022-12-05T01:45:35;26.70;;;12.07;;
13435;SDS011;6790;49.520;8.504;2022-12-05T01:48:04;24.50;;;10.23;;
13435;SDS011;6790;49.520;8.504;2022-12-05T01:50:49;19.80;;;10.60;;
13435;SDS011;6790;49.520;8.504;2022-12-05T01:53:15;29.23;;;11.37;;
13435;SDS011;6790;49.520;8.504;2022-12-05T01:55:42;23.57;;;10.60;;
13435;SDS011;6790;49.520;8.504;2022-12-05T01:58:10;27.10;;;10.40;;
13435;SDS011;6790;49.520;8.504;2022-12-05T02:00:36;19.03;;;8.93;;
13435;SDS011;6790;49.520;8.504;2022-12-05T02:03:05;29.00;;;9.83;;
13435;SDS011;6790;49.520;8.504;2022-12-05T02:05:34;29.97;;;11.83;;
13435;SDS011;6790;49.520;8.504;2022-12-05T02:08:02;31.63;;;12.27;;
13435;SDS011;6790;49.520;8.504;2022-12-05T02:10:43;25.43;;;9.63;;
13435;SDS011;6790;49.520;8.504;2022-12-05T02:13:17;24.23;;;10.20;;
13435;SDS011;6790;49.520;8.504;2022-12-05T02:16:38;24.90;;;10.77;;
13435;SDS011;6790;49.520;8.504;2022-12-05T02:27:44;26.73;;;10.03;;
13435;SDS011;6790;49.520;8.504;2022-12-05T02:30:40;24.67;;;10.10;;
13435;SDS011;6790;49.520;8.504;2022-12-05T02:36:25;29.93;;;11.83;;
13435;SDS011;6790;49.520;8.504;2022-12-05T02:44:41;27.13;;;12.70;;
13435;SDS011;6790;49.520;8.504;2022-12-05T02:47:13;38.50;;;11.87;;
13435;SDS011;6790;49.520;8.504;2022-12-05T02:49:43;40.43;;;12.60;;
13435;SDS011;6790;49.520;8.504;2022-12-05T02:52:11;29.10;;;10.93;;
13435;SDS011;6790;49.520;8.504;2022-12-05T02:54:40;39.93;;;13.67;;
13435;SDS011;6790;49.520;8.504;2022-12-05T02:57:09;27.30;;;10.27;;
13435;SDS011;6790;49.520;8.504;2022-12-05T02:59:37;26.83;;;10.73;;
13435;SDS011;6790;49.520;8.504;2022-12-05T03:02:03;33.40;;;13.17;;
13435;SDS011;6790;49.520;8.504;2022-12-05T03:04:29;23.80;;;10.50;;
13435;SDS011;6790;49.520;8.504;2022-12-05T03:07:06;34.17;;;9.57;;
13435;SDS011;6790;49.520;8.504;2022-12-05T03:12:32;28.47;;;9.90;;
13435;SDS011;6790;49.520;8.504;2022-12-05T03:17:52;33.27;;;10.47;;
13435;SDS011;6790;49.520;8.504;2022-12-05T03:20:30;33.73;;;10.83;;
13435;SDS011;6790;49.520;8.504;2022-12-05T03:23:02;24.93;;;10.97;;
13435;SDS011;6790;49.520;8.504;2022-12-05T03:25:46;42.47;;;12.67;;
13435;SDS011;6790;49.520;8.504;2022-12-05T03:28:30;32.63;;;11.47;;
13435;SDS011;6790;49.520;8.504;2022-12-05T03:31:08;28.57;;;11.03;;
13435;SDS011;6790;49.520;8.504;2022-12-05T03:33:40;30.13;;;10.83;;
13435;SDS011;6790;49.520;8.504;2022-12-05T03:36:16;50.57;;;14.20;;
13435;SDS011;6790;49.520;8.504;2022-12-05T03:38:50;47.80;;;12.60;;
13435;SDS011;6790;49.520;8.504;2022-12-05T03:41:47;55.07;;;14.23;;
13435;SDS011;6790;49.520;8.504;2022-12-05T03:47:25;45.97;;;15.33;;
13435;SDS011;6790;49.520;8.504;2022-12-05T03:50:02;39.27;;;13.13;;
13435;SDS011;6790;49.520;8.504;2022-12-05T03:52:38;49.63;;;16.00;;
13435;SDS011;6790;49.520;8.504;2022-12-05T03:55:10;46.00;;;14.13;;
13435;SDS011;6790;49.520;8.504;2022-12-05T04:00:20;33.60;;;11.80;;
13435;SDS011;6790;49.520;8.504;2022-12-05T04:02:56;34.73;;;12.73;;
13435;SDS011;6790;49.520;8.504;2022-12-05T04:05:50;37.77;;;11.67;;
13435;SDS011;6790;49.520;8.504;2022-12-05T04:08:37;47.33;;;12.13;;
13435;SDS011;6790;49.520;8.504;2022-12-05T04:11:28;41.53;;;11.70;;
13435;SDS011;6790;49.520;8.504;2022-12-05T04:14:07;36.30;;;12.60;;
13435;SDS011;6790;49.520;8.504;2022-12-05T04:16:43;29.27;;;10.87;;
13435;SDS011;6790;49.520;8.504;2022-12-05T04:22:18;36.03;;;12.27;;
13435;SDS011;6790;49.520;8.504;2022-12-05T04:24:47;30.37;;;11.93;;
13435;SDS011;6790;49.520;8.504;2022-12-05T04:27:41;29.17;;;10.07;;
13435;SDS011;6790;49.520;8.504;2022-12-05T04:30:36;33.03;;;12.10;;
13435;SDS011;6790;49.520;8.504;2022-12-05T04:35:57;30.77;;;10.80;;
13435;SDS011;6790;49.520;8.504;2022-12-05T04:38:50;18.47;;;8.57;;
13435;SDS011;6790;49.520;8.504;2022-12-05T04:41:45;26.47;;;11.37;;
13435;SDS011;6790;49.520;8.504;2022-12-05T04:44:18;35.47;;;10.83;;
13435;SDS011;6790;49.520;8.504;2022-12-05T04:46:49;35.23;;;13.43;;
13435;SDS011;6790;49.520;8.504;2022-12-05T04:49:21;37.17;;;11.30;;
13435;SDS011;6790;49.520;8.504;2022-12-05T04:51:51;25.00;;;11.73;;
13435;SDS011;6790;49.520;8.504;2022-12-05T04:54:31;29.20;;;11.33;;
13435;SDS011;6790;49.520;8.504;2022-12-05T04:57:06;24.23;;;11.37;;
13435;SDS011;6790;49.520;8.504;2022-12-05T04:59:40;30.27;;;9.00;;
13435;SDS011;6790;49.520;8.504;2022-12-05T05:02:06;28.37;;;11.47;;
13435;SDS011;6790;49.520;8.504;2022-12-05T05:04:35;23.60;;;9.83;;
13435;SDS011;6790;49.520;8.504;2022-12-05T05:07:07;36.80;;;11.83;;
13435;SDS011;6790;49.520;8.504;2022-12-05T05:09:35;38.67;;;12.60;;
13435;SDS011;6790;49.520;8.504;2022-12-05T05:12:02;29.70;;;9.97;;
13435;SDS011;6790;49.520;8.504;2022-12-05T05:14:28;34.03;;;12.07;;
13435;SDS011;6790;49.520;8.504;2022-12-05T05:16:54;29.43;;;11.30;;
13435;SDS011;6790;49.520;8.504;2022-12-05T05:19:20;26.03;;;10.73;;
13435;SDS011;6790;49.520;8.504;2022-12-05T05:21:46;29.17;;;11.93;;
13435;SDS011;6790;49.520;8.504;2022-12-05T05:24:18;26.60;;;9.97;;
13435;SDS011;6790;49.520;8.504;2022-12-05T05:26:48;29.37;;;11.63;;
13435;SDS011;6790;49.520;8.504;2022-12-05T05:29:14;33.60;;;12.03;;
13435;SDS011;6790;49.520;8.504;2022-12-05T05:31:40;26.57;;;11.03;;
13435;SDS011;6790;49.520;8.504;2022-12-05T05:34:07;27.77;;;10.47;;
13435;SDS011;6790;49.520;8.504;2022-12-05T05:36:33;28.87;;;9.87;;
13435;SDS011;6790;49.520;8.504;2022-12-05T05:39:00;27.23;;;11.70;;
13435;SDS011;6790;49.520;8.504;2022-12-05T05:41:28;22.10;;;11.23;;
13435;SDS011;6790;49.520;8.504;2022-12-05T05:43:57;30.27;;;11.63;;
13435;SDS011;6790;49.520;8.504;2022-12-05T05:46:24;27.37;;;9.53;;
13435;SDS011;6790;49.520;8.504;2022-12-05T05:48:53;42.37;;;14.40;;
13435;SDS011;6790;49.520;8.504;2022-12-05T05:51:19;206.83;;;75.90;;
13435;SDS011;6790;49.520;8.504;2022-12-05T05:53:46;136.20;;;52.63;;
13435;SDS011;6790;49.520;8.504;2022-12-05T05:56:15;44.63;;;15.60;;
13435;SDS011;6790;49.520;8.504;2022-12-05T05:58:43;38.03;;;15.10;;
13435;SDS011;6790;49.520;8.504;2022-12-05T06:01:10;37.93;;;16.27;;
13435;SDS011;6790;49.520;8.504;2022-12-05T06:03:42;32.73;;;14.00;;
13435;SDS011;6790;49.520;8.504;2022-12-05T06:06:09;36.23;;;15.87;;
13435;SDS011;6790;49.520;8.504;2022-12-05T06:08:39;43.17;;;15.47;;
13435;SDS011;6790;49.520;8.504;2022-12-05T06:11:08;30.27;;;12.77;;
13435;SDS011;6790;49.520;8.504;2022-12-05T06:13:39;30.50;;;12.97;;
13435;SDS011;6790;49.520;8.504;2022-12-05T06:16:06;34.67;;;15.47;;
13435;SDS011;6790;49.520;8.504;2022-12-05T06:18:34;28.83;;;14.90;;
13435;SDS011;6790;49.520;8.504;2022-12-05T06:21:00;40.20;;;15.97;;
13435;SDS011;6790;49.520;8.504;2022-12-05T06:23:26;30.57;;;11.63;;
13435;SDS011;6790;49.520;8.504;2022-12-05T06:25:53;31.93;;;11.43;;
13435;SDS011;6790;49.520;8.504;2022-12-05T06:28:20;38.07;;;14.47;;
13435;SDS011;6790;49.520;8.504;2022-12-05T06:30:49;26.57;;;11.40;;
13435;SDS011;6790;49.520;8.504;2022-12-05T06:33:16;26.20;;;11.27;;
13435;SDS011;6790;49.520;8.504;2022-12-05T06:35:42;31.17;;;11.33;;
13435;SDS011;6790;49.520;8.504;2022-12-05T06:38:08;40.10;;;13.57;;
13435;SDS011;6790;49.520;8.504;2022-12-05T06:40:38;26.03;;;11.53;;
13435;SDS011;6790;49.520;8.504;2022-12-05T06:43:05;32.03;;;11.47;;
13435;SDS011;6790;49.520;8.504;2022-12-05T06:45:31;34.10;;;13.20;;
13435;SDS011;6790;49.520;8.504;2022-12-05T06:47:56;22.83;;;11.00;;
13435;SDS011;6790;49.520;8.504;2022-12-05T06:50:22;31.50;;;11.97;;
13435;SDS011;6790;49.520;8.504;2022-12-05T06:52:48;33.93;;;12.23;;
13435;SDS011;6790;49.520;8.504;2022-12-05T06:55:15;23.07;;;10.40;;
13435;SDS011;6790;49.520;8.504;2022-12-05T06:57:40;27.50;;;11.87;;
13435;SDS011;6790;49.520;8.504;2022-12-05T07:00:06;24.37;;;9.60;;
13435;SDS011;6790;49.520;8.504;2022-12-05T07:02:52;16.97;;;8.00;;
13435;SDS011;6790;49.520;8.504;2022-12-05T07:05:18;23.30;;;9.67;;
13435;SDS011;6790;49.520;8.504;2022-12-05T07:07:44;19.93;;;8.83;;
13435;SDS011;6790;49.520;8.504;2022-12-05T07:10:10;20.07;;;10.40;;
13435;SDS011;6790;49.520;8.504;2022-12-05T07:12:36;31.07;;;11.23;;
13435;SDS011;6790;49.520;8.504;2022-12-05T07:15:02;19.17;;;9.80;;
13435;SDS011;6790;49.520;8.504;2022-12-05T07:17:28;24.43;;;10.73;;
13435;SDS011;6790;49.520;8.504;2022-12-05T07:19:54;30.70;;;10.40;;
13435;SDS011;6790;49.520;8.504;2022-12-05T07:22:20;23.30;;;8.80;;
13435;SDS011;6790;49.520;8.504;2022-12-05T07:24:47;23.53;;;9.50;;
13435;SDS011;6790;49.520;8.504;2022-12-05T07:27:16;25.10;;;10.80;;
13435;SDS011;6790;49.520;8.504;2022-12-05T07:29:42;27.53;;;9.63;;
13435;SDS011;6790;49.520;8.504;2022-12-05T07:32:07;17.57;;;9.33;;
13435;SDS011;6790;49.520;8.504;2022-12-05T07:34:33;32.03;;;12.60;;
13435;SDS011;6790;49.520;8.504;2022-12-05T07:36:59;29.20;;;11.53;;
13435;SDS011;6790;49.520;8.504;2022-12-05T07:39:25;30.13;;;11.40;;
13435;SDS011;6790;49.520;8.504;2022-12-05T07:41:51;19.83;;;9.07;;
13435;SDS011;6790;49.520;8.504;2022-12-05T07:44:16;32.83;;;11.50;;
13435;SDS011;6790;49.520;8.504;2022-12-05T07:46:42;30.10;;;11.47;;
13435;SDS011;6790;49.520;8.504;2022-12-05T07:49:08;22.53;;;9.10;;
13435;SDS011;6790;49.520;8.504;2022-12-05T07:51:34;24.83;;;9.83;;
13435;SDS011;6790;49.520;8.504;2022-12-05T07:54:00;20.00;;;9.03;;
13435;SDS011;6790;49.520;8.504;2022-12-05T07:56:26;26.20;;;9.57;;
13435;SDS011;6790;49.520;8.504;2022-12-05T07:58:52;28.23;;;9.87;;
13435;SDS011;6790;49.520;8.504;2022-12-05T08:01:19;24.43;;;9.93;;
13435;SDS011;6790;49.520;8.504;2022-12-05T08:03:47;25.57;;;9.63;;
13435;SDS011;6790;49.520;8.504;2022-12-05T08:06:15;23.70;;;8.80;;
13435;SDS011;6790;49.520;8.504;2022-12-05T08:08:44;25.53;;;10.00;;
13435;SDS011;6790;49.520;8.504;2022-12-05T08:11:14;29.40;;;11.27;;
13435;SDS011;6790;49.520;8.504;2022-12-05T08:13:46;20.70;;;10.00;;
13435;SDS011;6790;49.520;8.504;2022-12-05T08:16:13;18.30;;;9.67;;
13435;SDS011;6790;49.520;8.504;2022-12-05T08:18:45;26.43;;;9.43;;
13435;SDS011;6790;49.520;8.504;2022-12-05T08:21:12;23.00;;;9.40;;
13435;SDS011;6790;49.520;8.504;2022-12-05T08:23:41;30.40;;;10.33;;
13435;SDS011;6790;49.520;8.504;2022-12-05T08:26:13;27.10;;;10.63;;
13435;SDS011;6790;49.520;8.504;2022-12-05T08:28:45;26.63;;;11.50;;
13435;SDS011;6790;49.520;8.504;2022-12-05T08:31:13;34.07;;;13.13;;
13435;SDS011;6790;49.520;8.504;2022-12-05T08:33:41;25.97;;;10.47;;
13435;SDS011;6790;49.520;8.504;2022-12-05T08:36:08;34.43;;;13.37;;
13435;SDS011;6790;49.520;8.504;2022-12-05T08:38:39;30.73;;;11.50;;
13435;SDS011;6790;49.520;8.504;2022-12-05T08:41:07;35.70;;;13.70;;
13435;SDS011;6790;49.520;8.504;2022-12-05T08:43:35;31.73;;;11.53;;
13435;SDS011;6790;49.520;8.504;2022-12-05T08:46:01;27.57;;;11.67;;
13435;SDS011;6790;49.520;8.504;2022-12-05T08:48:27;28.53;;;11.47;;
13435;SDS011;6790;49.520;8.504;2022-12-05T08:50:54;30.43;;;11.53;;
13435;SDS011;6790;49.520;8.504;2022-12-05T08:53:20;30.77;;;13.23;;
13435;SDS011;6790;49.520;8.504;2022-12-05T08:55:46;30.20;;;11.30;;
13435;SDS011;6790;49.520;8.504;2022-12-05T08:58:12;34.13;;;11.77;;
13435;SDS011;6790;49.520;8.504;2022-12-05T09:00:38;32.03;;;12.23;;
13435;SDS011;6790;49.520;8.504;2022-12-05T09:03:05;27.40;;;11.67;;
13435;SDS011;6790;49.520;8.504;2022-12-05T09:05:31;25.43;;;9.77;;
13435;SDS011;6790;49.520;8.504;2022-12-05T09:07:57;35.20;;;13.80;;
13435;SDS011;6790;49.520;8.504;2022-12-05T09:10:23;30.50;;;11.23;;
13435;SDS011;6790;49.520;8.504;2022-12-05T09:12:50;26.20;;;11.77;;
13435;SDS011;6790;49.520;8.504;2022-12-05T09:15:16;32.23;;;13.17;;
13435;SDS011;6790;49.520;8.504;2022-12-05T09:17:42;35.87;;;13.17;;
13435;SDS011;6790;49.520;8.504;2022-12-05T09:20:08;27.13;;;11.10;;
13435;SDS011;6790;49.520;8.504;2022-12-05T09:22:37;25.30;;;10.27;;
13435;SDS011;6790;49.520;8.504;2022-12-05T09:25:07;31.93;;;10.93;;
13435;SDS011;6790;49.520;8.504;2022-12-05T09:27:33;30.00;;;11.47;;
13435;SDS011;6790;49.520;8.504;2022-12-05T09:29:59;30.30;;;11.23;;
13435;SDS011;6790;49.520;8.504;2022-12-05T09:32:24;34.57;;;14.20;;
13435;SDS011;6790;49.520;8.504;2022-12-05T09:34:50;31.70;;;11.20;;
13435;SDS011;6790;49.520;8.504;2022-12-05T09:37:15;30.20;;;11.77;;
13435;SDS011;6790;49.520;8.504;2022-12-05T09:39:45;30.60;;;12.40;;
13435;SDS011;6790;49.520;8.504;2022-12-05T09:42:34;34.10;;;12.53;;
13435;SDS011;6790;49.520;8.504;2022-12-05T09:45:11;35.87;;;12.70;;
13435;SDS011;6790;49.520;8.504;2022-12-05T09:47:55;25.63;;;11.37;;
13435;SDS011;6790;49.520;8.504;2022-12-05T09:50:34;44.43;;;13.83;;
13435;SDS011;6790;49.520;8.504;2022-12-05T09:56:03;24.07;;;10.73;;
13435;SDS011;6790;49.520;8.504;2022-12-05T09:58:43;29.73;;;11.40;;
13435;SDS011;6790;49.520;8.504;2022-12-05T10:16:28;32.20;;;12.03;;
13435;SDS011;6790;49.520;8.504;2022-12-05T10:19:10;29.90;;;12.33;;
13435;SDS011;6790;49.520;8.504;2022-12-05T10:21:47;31.93;;;13.13;;
13435;SDS011;6790;49.520;8.504;2022-12-05T10:24:25;25.77;;;12.10;;
13435;SDS011;6790;49.520;8.504;2022-12-05T10:26:59;23.37;;;12.40;;
13435;SDS011;6790;49.520;8.504;2022-12-05T10:29:34;21.93;;;10.03;;
13435;SDS011;6790;49.520;8.504;2022-12-05T10:32:09;32.10;;;13.60;;
13435;SDS011;6790;49.520;8.504;2022-12-05T10:34:42;26.43;;;13.23;;
13435;SDS011;6790;49.520;8.504;2022-12-05T10:37:14;32.23;;;12.87;;
13435;SDS011;6790;49.520;8.504;2022-12-05T10:39:45;23.40;;;10.20;;
13435;SDS011;6790;49.520;8.504;2022-12-05T10:42:26;28.87;;;13.37;;
13435;SDS011;6790;49.520;8.504;2022-12-05T10:44:57;24.50;;;12.10;;
13435;SDS011;6790;49.520;8.504;2022-12-05T10:47:28;21.83;;;10.87;;
13435;SDS011;6790;49.520;8.504;2022-12-05T10:49:55;20.73;;;11.70;;
13435;SDS011;6790;49.520;8.504;2022-12-05T10:52:29;29.40;;;14.10;;
13435;SDS011;6790;49.520;8.504;2022-12-05T10:55:04;30.57;;;13.63;;
13435;SDS011;6790;49.520;8.504;2022-12-05T10:57:32;28.67;;;13.50;;
13435;SDS011;6790;49.520;8.504;2022-12-05T11:00:08;24.53;;;12.00;;
13435;SDS011;6790;49.520;8.504;2022-12-05T11:02:37;25.80;;;11.53;;
13435;SDS011;6790;49.520;8.504;2022-12-05T11:05:04;26.30;;;11.90;;
13435;SDS011;6790;49.520;8.504;2022-12-05T11:07:32;19.67;;;10.93;;
13435;SDS011;6790;49.520;8.504;2022-12-05T11:10:19;26.40;;;12.87;;
13435;SDS011;6790;49.520;8.504;2022-12-05T11:12:51;27.93;;;13.50;;
13435;SDS011;6790;49.520;8.504;2022-12-05T11:15:21;28.13;;;12.80;;
13435;SDS011;6790;49.520;8.504;2022-12-05T11:17:51;26.10;;;13.20;;
13435;SDS011;6790;49.520;8.504;2022-12-05T11:25:23;21.23;;;11.30;;
13435;SDS011;6790;49.520;8.504;2022-12-05T11:27:52;20.73;;;11.03;;
13435;SDS011;6790;49.520;8.504;2022-12-05T11:30:24;26.50;;;11.67;;
13435;SDS011;6790;49.520;8.504;2022-12-05T11:33:17;22.40;;;11.77;;
13435;SDS011;6790;49.520;8.504;2022-12-05T11:35:46;24.47;;;10.10;;
13435;SDS011;6790;49.520;8.504;2022-12-05T11:38:15;24.77;;;10.73;;
13435;SDS011;6790;49.520;8.504;2022-12-05T11:51:57;20.13;;;10.37;;
13435;SDS011;6790;49.520;8.504;2022-12-05T11:55:13;20.40;;;9.80;;
13435;SDS011;6790;49.520;8.504;2022-12-05T12:18:24;22.23;;;12.00;;
13435;SDS011;6790;49.520;8.504;2022-12-05T12:30:03;23.07;;;10.90;;
13435;SDS011;6790;49.520;8.504;2022-12-05T12:35:26;18.13;;;9.90;;
13435;SDS011;6790;49.520;8.504;2022-12-05T12:38:02;21.67;;;11.33;;
13435;SDS011;6790;49.520;8.504;2022-12-05T12:40:52;19.60;;;9.53;;
13435;SDS011;6790;49.520;8.504;2022-12-05T12:46:15;18.90;;;10.43;;
13435;SDS011;6790;49.520;8.504;2022-12-05T12:52:17;20.67;;;11.00;;
13435;SDS011;6790;49.520;8.504;2022-12-05T13:00:55;36.27;;;18.10;;
13435;SDS011;6790;49.520;8.504;2022-12-05T13:03:36;23.33;;;11.60;;
13435;SDS011;6790;49.520;8.504;2022-12-05T13:06:20;17.17;;;8.93;;
13435;SDS011;6790;49.520;8.504;2022-12-05T13:08:54;19.83;;;9.57;;
13435;SDS011;6790;49.520;8.504;2022-12-05T13:11:24;22.20;;;10.93;;
13435;SDS011;6790;49.520;8.504;2022-12-05T13:13:59;20.03;;;10.47;;
13435;SDS011;6790;49.520;8.504;2022-12-05T13:16:36;20.87;;;9.93;;
13435;SDS011;6790;49.520;8.504;2022-12-05T13:19:06;26.07;;;11.10;;
13435;SDS011;6790;49.520;8.504;2022-12-05T13:21:47;20.77;;;10.20;;
13435;SDS011;6790;49.520;8.504;2022-12-05T13:24:13;16.37;;;9.60;;
13435;SDS011;6790;49.520;8.504;2022-12-05T13:26:47;17.03;;;9.47;;
13435;SDS011;6790;49.520;8.504;2022-12-05T13:29:26;15.60;;;9.30;;
13435;SDS011;6790;49.520;8.504;2022-12-05T13:32:04;13.77;;;8.57;;
13435;SDS011;6790;49.520;8.504;2022-12-05T13:36:58;15.57;;;8.93;;
13435;SDS011;6790;49.520;8.504;2022-12-05T13:39:53;13.67;;;7.87;;
13435;SDS011;6790;49.520;8.504;2022-12-05T13:42:39;17.53;;;9.57;;
13435;SDS011;6790;49.520;8.504;2022-12-05T13:45:07;29.03;;;17.00;;
13435;SDS011;6790;49.520;8.504;2022-12-05T13:52:58;12.70;;;7.47;;
13435;SDS011;6790;49.520;8.504;2022-12-05T13:55:53;14.33;;;7.50;;
13435;SDS011;6790;49.520;8.504;2022-12-05T14:04:00;11.57;;;4.87;;
13435;SDS011;6790;49.520;8.504;2022-12-05T14:09:49;6.33;;;4.53;;
13435;SDS011;6790;49.520;8.504;2022-12-05T14:17:23;6.87;;;3.80;;
13435;SDS011;6790;49.520;8.504;2022-12-05T14:28:45;10.67;;;5.80;;
13435;SDS011;6790;49.520;8.504;2022-12-05T14:34:26;6.37;;;3.20;;
13435;SDS011;6790;49.520;8.504;2022-12-05T14:36:58;7.30;;;2.90;;
13435;SDS011;6790;49.520;8.504;2022-12-05T14:39:38;4.87;;;3.27;;
13435;SDS011;6790;49.520;8.504;2022-12-05T14:42:43;17.23;;;8.50;;
13435;SDS011;6790;49.520;8.504;2022-12-05T14:48:00;3.50;;;2.20;;
13435;SDS011;6790;49.520;8.504;2022-12-05T14:50:34;3.83;;;2.47;;
13435;SDS011;6790;49.520;8.504;2022-12-05T15:02:26;3.83;;;2.90;;
13435;SDS011;6790;49.520;8.504;2022-12-05T15:07:43;13.97;;;8.50;;
13435;SDS011;6790;49.520;8.504;2022-12-05T15:10:15;3.80;;;2.60;;
13435;SDS011;6790;49.520;8.504;2022-12-05T15:12:48;3.03;;;2.37;;
13435;SDS011;6790;49.520;8.504;2022-12-05T15:18:15;3.37;;;2.53;;
13435;SDS011;6790;49.520;8.504;2022-12-05T15:20:56;3.83;;;2.30;;
13435;SDS011;6790;49.520;8.504;2022-12-05T15:26:56;7.73;;;3.37;;
13435;SDS011;6790;49.520;8.504;2022-12-05T15:31:29;7.23;;;3.60;;
13435;SDS011;6790;49.520;8.504;2022-12-05T15:34:20;10.73;;;6.77;;
13435;SDS011;6790;49.520;8.504;2022-12-05T15:37:03;3.33;;;2.73;;
13435;SDS011;6790;49.520;8.504;2022-12-05T15:42:48;2.90;;;2.20;;
13435;SDS011;6790;49.520;8.504;2022-12-05T15:45:21;4.53;;;3.00;;
13435;SDS011;6790;49.520;8.504;2022-12-05T15:47:50;4.30;;;2.93;;
13435;SDS011;6790;49.520;8.504;2022-12-05T15:58:43;5.10;;;3.00;;
13435;SDS011;6790;49.520;8.504;2022-12-05T16:01:23;5.83;;;4.10;;
13435;SDS011;6790;49.520;8.504;2022-12-05T16:08:59;8.23;;;4.43;;
13435;SDS011;6790;49.520;8.504;2022-12-05T16:11:32;13.17;;;4.63;;
13435;SDS011;6790;49.520;8.504;2022-12-05T16:14:00;7.57;;;4.53;;
13435;SDS011;6790;49.520;8.504;2022-12-05T16:16:31;8.43;;;5.97;;
13435;SDS011;6790;49.520;8.504;2022-12-05T16:22:05;4.33;;;2.90;;
13435;SDS011;6790;49.520;8.504;2022-12-05T16:25:17;4.00;;;3.50;;
13435;SDS011;6790;49.520;8.504;2022-12-05T16:27:27;10.43;;;3.10;;
13435;SDS011;6790;49.520;8.504;2022-12-05T16:30:17;11.57;;;9.43;;
13435;SDS011;6790;49.520;8.504;2022-12-05T16:32:47;13.10;;;10.60;;
13435;SDS011;6790;49.520;8.504;2022-12-05T16:35:29;5.77;;;4.20;;
13435;SDS011;6790;49.520;8.504;2022-12-05T16:38:02;4.07;;;3.37;;
13435;SDS011;6790;49.520;8.504;2022-12-05T16:40:30;5.03;;;2.83;;
13435;SDS011;6790;49.520;8.504;2022-12-05T16:43:05;6.37;;;3.97;;
13435;SDS011;6790;49.520;8.504;2022-12-05T16:45:42;5.23;;;3.30;;
13435;SDS011;6790;49.520;8.504;2022-12-05T16:48:13;7.80;;;4.53;;
13435;SDS011;6790;49.520;8.504;2022-12-05T16:50:40;7.03;;;3.90;;
13435;SDS011;6790;49.520;8.504;2022-12-05T16:55:32;6.27;;;3.77;;
13435;SDS011;6790;49.520;8.504;2022-12-05T16:58:01;5.07;;;3.67;;
13435;SDS011;6790;49.520;8.504;2022-12-05T17:00:28;4.00;;;3.00;;
13435;SDS011;6790;49.520;8.504;2022-12-05T17:02:55;7.93;;;4.43;;
13435;SDS011;6790;49.520;8.504;2022-12-05T17:05:22;5.50;;;3.80;;
13435;SDS011;6790;49.520;8.504;2022-12-05T17:07:48;6.27;;;4.50;;
13435;SDS011;6790;49.520;8.504;2022-12-05T17:10:15;5.37;;;4.30;;
13435;SDS011;6790;49.520;8.504;2022-12-05T17:12:42;7.30;;;3.93;;
13435;SDS011;6790;49.520;8.504;2022-12-05T17:15:15;8.07;;;3.83;;
13435;SDS011;6790;49.520;8.504;2022-12-05T17:17:43;21.67;;;10.20;;
13435;SDS011;6790;49.520;8.504;2022-12-05T17:20:09;69.43;;;28.13;;
13435;SDS011;6790;49.520;8.504;2022-12-05T17:22:36;41.97;;;21.23;;
13435;SDS011;6790;49.520;8.504;2022-12-05T17:25:04;29.03;;;13.77;;
13435;SDS011;6790;49.520;8.504;2022-12-05T17:27:56;30.37;;;17.70;;
13435;SDS011;6790;49.520;8.504;2022-12-05T17:30:22;21.17;;;12.30;;
13435;SDS011;6790;49.520;8.504;2022-12-05T17:32:49;16.40;;;8.37;;
13435;SDS011;6790;49.520;8.504;2022-12-05T17:35:15;9.43;;;6.37;;
13435;SDS011;6790;49.520;8.504;2022-12-05T17:37:43;8.33;;;5.47;;
13435;SDS011;6790;49.520;8.504;2022-12-05T17:40:09;7.43;;;5.50;;
13435;SDS011;6790;49.520;8.504;2022-12-05T17:42:37;8.33;;;5.17;;
13435;SDS011;6790;49.520;8.504;2022-12-05T17:45:04;6.27;;;5.57;;
13435;SDS011;6790;49.520;8.504;2022-12-05T17:47:34;11.33;;;6.70;;
13435;SDS011;6790;49.520;8.504;2022-12-05T17:50:00;6.77;;;5.20;;
13435;SDS011;6790;49.520;8.504;2022-12-05T17:52:27;6.03;;;4.50;;
13435;SDS011;6790;49.520;8.504;2022-12-05T17:54:53;6.13;;;4.53;;
13435;SDS011;6790;49.520;8.504;2022-12-05T17:57:19;7.50;;;4.93;;
13435;SDS011;6790;49.520;8.504;2022-12-05T17:59:44;12.43;;;4.30;;
13435;SDS011;6790;49.520;8.504;2022-12-05T18:02:10;6.50;;;3.83;;
13435;SDS011;6790;49.520;8.504;2022-12-05T18:04:36;6.37;;;4.27;;
13435;SDS011;6790;49.520;8.504;2022-12-05T18:07:02;4.97;;;4.10;;
13435;SDS011;6790;49.520;8.504;2022-12-05T18:09:28;7.73;;;4.30;;
13435;SDS011;6790;49.520;8.504;2022-12-05T18:11:54;8.67;;;3.97;;
13435;SDS011;6790;49.520;8.504;2022-12-05T18:14:20;9.87;;;4.17;;
13435;SDS011;6790;49.520;8.504;2022-12-05T18:16:47;8.77;;;3.87;;
13435;SDS011;6790;49.520;8.504;2022-12-05T18:19:12;8.67;;;3.77;;
13435;SDS011;6790;49.520;8.504;2022-12-05T18:21:38;34.10;;;18.43;;